Historyczne dane pomiarowe

Dodano dane terminowe – wersja testowa.

Dane z okresu 1951-2019

Wersja bazy: 1.34 [2019-03-16, lista zmian], aktualizacja planowana na 2019-04-15

Dane meteo z obszaru Polski uzyskane na podstawie danych udostępnionych przez Instytut Meteorologii i Gospodarki Wodnej – Państwowy Instytut Badawczy.

 

Wybierz Datę:    

       

TemperaturaWilgotnośćWiatrCiśnienieOpadyŚniegCzas trwania zjawisk
 Stacja t tx tn tng RH VA  wxwx mslp ppp RRR   cm mm wxwxwxwxwxwxwx
1994-08-14 15.3 19.5 13.3 11.9-- 4.0 2.3---- 0.0------------
1994-08-13 17.1 22.0 14.1 13.9-- 6.0 3.0---- 0.6------------
1994-08-12 17.4 21.0 12.1 10.4-- 5.7 2.0---- 0.0------------
1994-08-11 17.9 23.0 16.0 13.4-- 6.7 1.0---- 4.7------------
1994-08-10 19.0 25.0 12.1 10.9-- 5.7 0.3---- 1.0------------
1994-08-09 19.2 23.0 17.5 15.4-- 6.7 1.0---- 7.6------------
1994-08-08 21.9 27.5 18.0 17.0-- 5.0 0.3---- 10.8------------
1994-08-07 23.3 31.5 17.0 13.4-- 4.0 1.0---- 0.7------------
1994-08-06 23.0 31.5 11.6 8.9-- 3.3 0.3---- 0.0------------
1994-08-05 23.6 30.5 15.5 12.9-- 3.7 0.3---- 0.0------------
1994-08-04 22.8 28.5 17.5 15.9-- 5.0 1.0---- 0.0------------
1994-08-03 25.3 33.5 19.0 15.4-- 4.3 1.7---- 4.8------------
1994-08-02 23.8 30.5 15.1 12.9-- 4.7 0.3---- 0.0------------
1994-08-01 27.9 35.0 14.1 11.9-- 4.3 0.3---- 0.0------------
1994-07-31 25.1 34.0 14.1 10.9-- 2.3 0.7---- 0.0------------
1994-07-30 25.1 34.5 13.1 10.4-- 2.7 0.3---- 0.0------------
1994-07-29 26.9 33.5 12.6 9.4-- 2.7 0.3---- 0.0------------
1994-07-28 26.9 33.0 13.1 10.9-- 2.3 0.3---- 0.0------------
1994-07-27 24.3 33.5 12.6 10.4-- 3.3 1.0---- 0.0------------
1994-07-26 23.9 32.4 13.1 9.9-- 2.7 0.0---- 0.0------------
1994-07-25 22.2 31.5 10.7 8.4-- 3.0 0.0---- 0.0------------
1994-07-24 21.2 30.5 9.2 8.4-- 3.3 0.3---- 0.0------------
1994-07-23 21.2 28.5 10.7 7.9-- 4.0 0.3---- 0.0------------
1994-07-22 20.5 28.5 10.2 7.9-- 2.7 0.3---- 0.0------------
1994-07-21 19.3 27.0 8.5 6.4-- 2.3 0.7---- 0.0------------
1994-07-20 18.9 24.5 10.7 7.9-- 4.0 0.7---- 0.0------------
1994-07-19 18.6 24.5 12.1 11.4-- 3.3 0.0---- 0.0------------
1994-07-18 20.8 27.0 16.0 15.9-- 2.7 0.3---- 0.0------------
1994-07-17 21.6 28.5 17.0 15.9-- 5.3 0.7---- 7.3------------
1994-07-16 22.6 30.5 13.1 11.4-- 3.7 0.3---- 0.0------------
1994-07-15 22.1 28.0 13.1 11.9-- 4.0 0.3---- 0.0------------
1994-07-14 21.4 28.5 13.4 10.9-- 3.7 0.7---- 0.0------------
1994-07-13 21.6 28.0 12.6 9.9-- 4.7 0.7---- 0.0------------
1994-07-12 20.9 27.0 13.1 12.9-- 4.3 1.0---- 0.0------------
1994-07-11 18.6 25.5 13.1 11.4-- 5.3 1.3---- 0.0------------
1994-07-10 16.6 22.0 12.0 11.9-- 5.3 1.7---- 5.8------------
1994-07-09 15.1 19.0 12.4 8.9-- 7.7 1.3---- 6.8------------
1994-07-08 16.9 21.5 12.4 6.9-- 5.0 2.3---- 0.0------------
1994-07-07 19.0 26.5 10.2 7.9-- 3.3 1.0---- 1.3------------
1994-07-06 20.1 25.0 10.2 6.9-- 2.7 0.3---- 0.0------------
1994-07-05 20.2 26.0 11.6 8.4-- 3.7 1.3---- 0.4------------
1994-07-04 20.2 29.0 9.2 7.4-- 3.7 0.3---- 0.0------------
1994-07-03 19.1 26.5 7.1 4.9-- 3.3 0.7---- 0.0------------
1994-07-02 18.9 25.5 8.7 6.4-- 3.0 0.7---- 0.0------------
1994-07-01 20.6 22.6 14.6 11.9-- 3.3 1.0---- 0.0------------
1994-06-30 20.0 26.4 11.7 8.0-- 4.0 0.7---- 0.0------------
1994-06-29 22.6 30.0 15.3 12.1-- 4.3 0.7---- 0.0------------
1994-06-28 23.4 29.2 15.1 10.1-- 3.0 0.3---- 0.0------------
1994-06-27 21.4 29.3 11.3 7.1-- 3.3 0.0---- 0.0------------
1994-06-26 20.6 30.0 8.1 5.0-- 3.0 0.3---- 0.0------------
1994-06-25 17.3 26.9 5.1 3.0-- 3.7 0.3---- 0.0------------
1994-06-24 15.2 21.0 8.7 5.4-- 4.3 3.0---- 0.0------------
1994-06-23 19.5 24.0 16.0 13.9-- 5.0 2.0---- 0.0------------
1994-06-22 18.8 26.7 7.1 5.4-- 4.3 1.7---- 0.0------------
1994-06-21 15.6 21.5 6.1 4.4-- 3.3 0.0---- 0.0------------
1994-06-20 17.0 24.9 8.1 6.9-- 5.0 1.3---- 0.0------------
1994-06-19 15.8 25.0 9.2 7.1-- 7.0 1.0---- 15.0------------
1994-06-18 12.8 19.5 2.5 0.8-- 6.7 1.7---- 0.0------------
1994-06-17 11.6 17.0 8.1 4.9-- 7.0 2.7---- 4.3------------
1994-06-16 11.6 18.5 6.1 4.4-- 6.7 1.7---- 0.0------------
293.6 ms

 

Źródłem pochodzenia danych jest Instytut Meteorologii i Gospodarki Wodnej – Państwowy Instytut Badawczy. Dane Instytutu Meteorologii i Gospodarki Wodnej – Państwowego Instytutu Badawczego zostały przetworzone.

Dane źródłowe można odnaleźć na stronie https://dane.imgw.pl